DAL477 KLAX-KFLL
Flight info
| Callsign | DAL477 |
|---|---|
| Flight time | N/A |
| Altitude | 35000 |
| Route | DOTSS2 CNERY BLH SPTFR SSO PEQ Q4 FUSCO LLO IAH J86 LEV Y290 DOWRY TEEKY4 |
| Aircraft | A21N/M-SDE2E3FGHIRWXY/LB1 |
Departure
| Time | N/A |
|---|---|
| Airport | Los Angeles International Airport (KLAX) |
Arrival
| Time | 2026-05-05 03:16 |
|---|---|
| Airport | Fort Lauderdale Hollywood International Airport (KFLL) |
| Time | Latitude | Longitude | Altitude | Speed | Heading |
|---|---|---|---|---|---|
| 2026-05-05 03:07 | 26.11661 | -80.79540 | 9080 ft | 312 kts | 102° |
| 2026-05-05 03:07 | 26.11265 | -80.77179 | 8723 ft | 309 kts | 102° |
| 2026-05-05 03:08 | 26.10870 | -80.74841 | 8354 ft | 306 kts | 102° |
| 2026-05-05 03:08 | 26.10480 | -80.72520 | 8002 ft | 303 kts | 102° |
| 2026-05-05 03:08 | 26.10094 | -80.70223 | 7653 ft | 301 kts | 102° |
| 2026-05-05 03:08 | 26.09713 | -80.67947 | 7303 ft | 298 kts | 101° |
| 2026-05-05 03:09 | 26.09335 | -80.65690 | 6956 ft | 295 kts | 101° |
| 2026-05-05 03:09 | 26.08960 | -80.63458 | 6604 ft | 293 kts | 101° |
| 2026-05-05 03:09 | 26.08587 | -80.61252 | 6122 ft | 288 kts | 101° |
| 2026-05-05 03:09 | 26.08220 | -80.59073 | 5558 ft | 284 kts | 101° |
| 2026-05-05 03:10 | 26.07865 | -80.56966 | 5138 ft | 276 kts | 102° |
| 2026-05-05 03:10 | 26.07513 | -80.54884 | 5020 ft | 274 kts | 101° |
| 2026-05-05 03:10 | 26.07156 | -80.52813 | 4951 ft | 271 kts | 103° |
| 2026-05-05 03:10 | 26.06791 | -80.50738 | 5010 ft | 274 kts | 97° |
| 2026-05-05 03:11 | 26.06700 | -80.48616 | 4869 ft | 275 kts | 91° |
| 2026-05-05 03:11 | 26.06719 | -80.46522 | 4672 ft | 266 kts | 90° |
| 2026-05-05 03:11 | 26.06725 | -80.44502 | 4491 ft | 257 kts | 90° |
| 2026-05-05 03:11 | 26.06717 | -80.42552 | 4322 ft | 248 kts | 91° |
| 2026-05-05 03:12 | 26.06709 | -80.40680 | 4179 ft | 238 kts | 91° |
| 2026-05-05 03:12 | 26.06701 | -80.38855 | 3924 ft | 235 kts | 90° |
| 2026-05-05 03:12 | 26.06693 | -80.37044 | 3630 ft | 234 kts | 90° |
| 2026-05-05 03:12 | 26.06686 | -80.35240 | 3335 ft | 232 kts | 90° |
| 2026-05-05 03:13 | 26.06678 | -80.33453 | 3043 ft | 229 kts | 90° |
| 2026-05-05 03:13 | 26.06670 | -80.31709 | 2742 ft | 222 kts | 90° |
| 2026-05-05 03:13 | 26.06662 | -80.30014 | 2452 ft | 217 kts | 90° |
| 2026-05-05 03:13 | 26.06654 | -80.28363 | 2171 ft | 210 kts | 90° |
| 2026-05-05 03:14 | 26.06646 | -80.26755 | 1898 ft | 205 kts | 90° |
| 2026-05-05 03:14 | 26.06638 | -80.25192 | 1631 ft | 199 kts | 90° |
| 2026-05-05 03:14 | 26.06631 | -80.23675 | 1384 ft | 192 kts | 89° |
| 2026-05-05 03:14 | 26.06623 | -80.22230 | 1132 ft | 180 kts | 89° |
| 2026-05-05 03:15 | 26.06616 | -80.20924 | 914 ft | 162 kts | 89° |
| 2026-05-05 03:15 | 26.06609 | -80.19748 | 746 ft | 146 kts | 89° |
| 2026-05-05 03:15 | 26.06603 | -80.18653 | 538 ft | 139 kts | 89° |
| 2026-05-05 03:15 | 26.06599 | -80.17579 | 356 ft | 139 kts | 89° |
| 2026-05-05 03:16 | 26.06595 | -80.16511 | 196 ft | 137 kts | 87° |
| 2026-05-05 03:16 | 26.06585 | -80.15458 | 40 ft | 135 kts | 88° |
| 2026-05-05 03:16 | 26.06584 | -80.14519 | 42 ft | 92 kts | 90° |
| 2026-05-05 03:16 | 26.06581 | -80.14144 | 64 ft | 9 kts | 90° |
| 2026-05-05 03:17 | 26.06581 | -80.14104 | 68 ft | 1 kts | 90° |